DIDLA EDDM-LOWI
Flight info
| Callsign | DIDLA |
|---|---|
| Flight time | N/A |
| Altitude | 15000 |
| Route | TURBU7W TURBU Y107 RTT RTT1B |
| Aircraft | SF50/L-SDGRWY/L |
Departure
| Time | 2026-05-07 13:48 |
|---|---|
| Airport | Munich Airport (EDDM) |
Arrival
| Time | N/A |
|---|---|
| Airport | Innsbruck Airport (LOWI) |
| Time | Latitude | Longitude | Altitude | Speed | Heading |
|---|---|---|---|---|---|
| 2026-05-07 13:31 | 48.34995 | 11.79997 | 1461 ft | 0 kts | 174° |
| 2026-05-07 13:40 | 48.34998 | 11.79996 | 1461 ft | 3 kts | 174° |
| 2026-05-07 13:40 | 48.35016 | 11.79993 | 1461 ft | 3 kts | 174° |
| 2026-05-07 13:40 | 48.35034 | 11.79991 | 1461 ft | 3 kts | 174° |
| 2026-05-07 13:40 | 48.35052 | 11.79988 | 1461 ft | 3 kts | 174° |
| 2026-05-07 13:41 | 48.35069 | 11.79985 | 1461 ft | 3 kts | 174° |
| 2026-05-07 13:41 | 48.35077 | 11.79991 | 1461 ft | 0 kts | 270° |
| 2026-05-07 13:44 | 48.35077 | 11.79932 | 1461 ft | 9 kts | 265° |
| 2026-05-07 13:44 | 48.35068 | 11.79819 | 1461 ft | 12 kts | 264° |
| 2026-05-07 13:44 | 48.35062 | 11.79701 | 1461 ft | 6 kts | 272° |
| 2026-05-07 13:44 | 48.35058 | 11.79690 | 1461 ft | 13 kts | 223° |
| 2026-05-07 13:45 | 48.35016 | 11.79665 | 1461 ft | 0 kts | 185° |
| 2026-05-07 13:45 | 48.34933 | 11.79681 | 1461 ft | 15 kts | 174° |
| 2026-05-07 13:45 | 48.34829 | 11.79699 | 1461 ft | 16 kts | 173° |
| 2026-05-07 13:46 | 48.34730 | 11.79716 | 1461 ft | 12 kts | 179° |
| 2026-05-07 13:46 | 48.34681 | 11.79652 | 1461 ft | 8 kts | 239° |
| 2026-05-07 13:46 | 48.34621 | 11.79523 | 1460 ft | 27 kts | 236° |
| 2026-05-07 13:46 | 48.34517 | 11.79295 | 1457 ft | 26 kts | 229° |
| 2026-05-07 13:47 | 48.34390 | 11.79030 | 1457 ft | 37 kts | 248° |
| 2026-05-07 13:47 | 48.34349 | 11.78399 | 1490 ft | 79 kts | 269° |
| 2026-05-07 13:47 | 48.34281 | 11.77501 | 1833 ft | 92 kts | 269° |
| 2026-05-07 13:47 | 48.34274 | 11.76329 | 2066 ft | 113 kts | 277° |
| 2026-05-07 13:48 | 48.34284 | 11.75162 | 2515 ft | 124 kts | 260° |
| 2026-05-07 13:48 | 48.33940 | 11.73903 | 2825 ft | 132 kts | 256° |
| 2026-05-07 13:48 | 48.33878 | 11.72534 | 3208 ft | 133 kts | 271° |
| 2026-05-07 13:48 | 48.33807 | 11.71129 | 3572 ft | 135 kts | 266° |
| 2026-05-07 13:49 | 48.33702 | 11.69736 | 3947 ft | 135 kts | 265° |
| 2026-05-07 13:49 | 48.33592 | 11.68337 | 4323 ft | 135 kts | 265° |
| 2026-05-07 13:49 | 48.33481 | 11.67010 | 4960 ft | 114 kts | 265° |
| 2026-05-07 13:49 | 48.33384 | 11.65777 | 5487 ft | 126 kts | 265° |
| 2026-05-07 13:50 | 48.33274 | 11.64411 | 6009 ft | 137 kts | 265° |
| 2026-05-07 13:50 | 48.33174 | 11.62929 | 6539 ft | 148 kts | 265° |
| 2026-05-07 13:50 | 48.33057 | 11.61328 | 7044 ft | 158 kts | 264° |
| 2026-05-07 13:50 | 48.32934 | 11.59642 | 7551 ft | 166 kts | 264° |
| 2026-05-07 13:51 | 48.32805 | 11.57873 | 8063 ft | 174 kts | 264° |
| 2026-05-07 13:51 | 48.32670 | 11.56038 | 8581 ft | 180 kts | 264° |
| 2026-05-07 13:51 | 48.32689 | 11.54181 | 9088 ft | 181 kts | 265° |
| 2026-05-07 13:51 | 48.32044 | 11.52560 | 9604 ft | 193 kts | 218° |
| 2026-05-07 13:52 | 48.30694 | 11.52223 | 10036 ft | 214 kts | 173° |
| 2026-05-07 13:52 | 48.29233 | 11.53158 | 10064 ft | 241 kts | 155° |
| 2026-05-07 13:52 | 48.27752 | 11.54539 | 10057 ft | 258 kts | 150° |
| 2026-05-07 13:52 | 48.26221 | 11.56068 | 10065 ft | 267 kts | 149° |
| 2026-05-07 13:53 | 48.24656 | 11.57636 | 10065 ft | 273 kts | 149° |
| 2026-05-07 13:53 | 48.23088 | 11.59209 | 10055 ft | 275 kts | 149° |
| 2026-05-07 13:53 | 48.21490 | 11.60822 | 10058 ft | 277 kts | 149° |
| 2026-05-07 13:53 | 48.19901 | 11.62469 | 10059 ft | 278 kts | 148° |
| 2026-05-07 13:54 | 48.18332 | 11.64167 | 10059 ft | 279 kts | 147° |
| 2026-05-07 13:54 | 48.16754 | 11.65881 | 10059 ft | 279 kts | 147° |
| 2026-05-07 13:54 | 48.15180 | 11.67591 | 10054 ft | 280 kts | 147° |
| 2026-05-07 13:54 | 48.13600 | 11.69304 | 10056 ft | 280 kts | 147° |
| 2026-05-07 13:55 | 48.12033 | 11.71004 | 10056 ft | 281 kts | 147° |
| 2026-05-07 13:55 | 48.10451 | 11.72719 | 10055 ft | 281 kts | 147° |
| 2026-05-07 13:55 | 48.08868 | 11.74435 | 10053 ft | 281 kts | 147° |
| 2026-05-07 13:55 | 48.07284 | 11.76157 | 10052 ft | 281 kts | 147° |
| 2026-05-07 13:56 | 48.05704 | 11.77878 | 10051 ft | 281 kts | 147° |
| 2026-05-07 13:56 | 48.04123 | 11.79596 | 10044 ft | 281 kts | 147° |
| 2026-05-07 13:56 | 48.02540 | 11.81310 | 10039 ft | 281 kts | 147° |
| 2026-05-07 13:56 | 48.00954 | 11.83026 | 10042 ft | 282 kts | 147° |
| 2026-05-07 13:57 | 47.99365 | 11.84740 | 10041 ft | 281 kts | 147° |
| 2026-05-07 13:57 | 47.97776 | 11.86452 | 10038 ft | 281 kts | 147° |
| 2026-05-07 13:57 | 47.96192 | 11.88157 | 10040 ft | 281 kts | 147° |
| 2026-05-07 13:57 | 47.94608 | 11.89858 | 10038 ft | 281 kts | 147° |
| 2026-05-07 13:58 | 47.93042 | 11.91539 | 10030 ft | 281 kts | 147° |
| 2026-05-07 13:58 | 47.91453 | 11.93246 | 10034 ft | 281 kts | 147° |
| 2026-05-07 13:58 | 47.89872 | 11.94957 | 10037 ft | 281 kts | 147° |
| 2026-05-07 13:58 | 47.88241 | 11.96510 | 10025 ft | 275 kts | 161° |
| 2026-05-07 13:59 | 47.86394 | 11.96812 | 10031 ft | 265 kts | 188° |
| 2026-05-07 13:59 | 47.84564 | 11.96454 | 10032 ft | 264 kts | 192° |
| 2026-05-07 13:59 | 47.82748 | 11.96018 | 10032 ft | 265 kts | 193° |
| 2026-05-07 13:59 | 47.80924 | 11.95565 | 10025 ft | 266 kts | 193° |
| 2026-05-07 14:00 | 47.79098 | 11.95103 | 10033 ft | 266 kts | 193° |
| 2026-05-07 14:00 | 47.77243 | 11.94850 | 10025 ft | 269 kts | 185° |
| 2026-05-07 14:00 | 47.75364 | 11.94861 | 10029 ft | 270 kts | 182° |
| 2026-05-07 14:00 | 47.73486 | 11.94924 | 10029 ft | 270 kts | 182° |
| 2026-05-07 14:01 | 47.71607 | 11.94991 | 10028 ft | 270 kts | 182° |
| 2026-05-07 14:01 | 47.69725 | 11.95059 | 10029 ft | 271 kts | 182° |
| 2026-05-07 14:01 | 47.67821 | 11.95120 | 9689 ft | 281 kts | 182° |
| 2026-05-07 14:01 | 47.65981 | 11.95168 | 9042 ft | 246 kts | 181° |
| 2026-05-07 14:02 | 47.64349 | 11.95239 | 8075 ft | 226 kts | 182° |
| 2026-05-07 14:02 | 47.62871 | 11.95147 | 7729 ft | 198 kts | 198° |
| 2026-05-07 14:02 | 47.61529 | 11.94123 | 7296 ft | 235 kts | 215° |
| 2026-05-07 14:02 | 47.60600 | 11.93164 | 7014 ft | 249 kts | 220° |
| 2026-05-07 14:03 | 47.59224 | 11.91514 | 6936 ft | 261 kts | 221° |
| 2026-05-07 14:03 | 47.57854 | 11.89746 | 7081 ft | 262 kts | 223° |
| 2026-05-07 14:03 | 47.56539 | 11.87913 | 7024 ft | 250 kts | 225° |
| 2026-05-07 14:03 | 47.55375 | 11.86131 | 6612 ft | 247 kts | 227° |
| 2026-05-07 14:04 | 47.54201 | 11.84214 | 6768 ft | 251 kts | 231° |
| 2026-05-07 14:04 | 47.53106 | 11.82224 | 6991 ft | 253 kts | 233° |
| 2026-05-07 14:04 | 47.52055 | 11.80071 | 6946 ft | 261 kts | 238° |
| 2026-05-07 14:04 | 47.51062 | 11.77826 | 6942 ft | 265 kts | 238° |
| 2026-05-07 14:05 | 47.50054 | 11.75550 | 6972 ft | 266 kts | 237° |
| 2026-05-07 14:05 | 47.49094 | 11.73284 | 7062 ft | 261 kts | 241° |
| 2026-05-07 14:05 | 47.48155 | 11.71082 | 7490 ft | 249 kts | 237° |
| 2026-05-07 14:05 | 47.47167 | 11.68942 | 7333 ft | 254 kts | 245° |
| 2026-05-07 14:06 | 47.46514 | 11.66489 | 7206 ft | 259 kts | 253° |
| 2026-05-07 14:06 | 47.45959 | 11.63921 | 7075 ft | 261 kts | 253° |
| 2026-05-07 14:06 | 47.45432 | 11.61504 | 7013 ft | 241 kts | 252° |
| 2026-05-07 14:06 | 47.44920 | 11.59150 | 7014 ft | 239 kts | 252° |
| 2026-05-07 14:07 | 47.44327 | 11.56878 | 7009 ft | 236 kts | 245° |
| 2026-05-07 14:07 | 47.43461 | 11.54856 | 7221 ft | 226 kts | 236° |
| 2026-05-07 14:07 | 47.42597 | 11.52951 | 7854 ft | 225 kts | 237° |
| 2026-05-07 14:07 | 47.41720 | 11.50982 | 8008 ft | 237 kts | 242° |
| 2026-05-07 14:08 | 47.41372 | 11.48547 | 8001 ft | 252 kts | 269° |
| 2026-05-07 14:08 | 47.41448 | 11.45910 | 8010 ft | 259 kts | 274° |
| 2026-05-07 14:08 | 47.41598 | 11.43416 | 8373 ft | 248 kts | 275° |
| 2026-05-07 14:08 | 47.41757 | 11.40809 | 8264 ft | 260 kts | 275° |
| 2026-05-07 14:09 | 47.41914 | 11.38106 | 8155 ft | 266 kts | 275° |
| 2026-05-07 14:09 | 47.42077 | 11.35396 | 8056 ft | 272 kts | 275° |
| 2026-05-07 14:09 | 47.42151 | 11.32615 | 7970 ft | 265 kts | 266° |
| 2026-05-07 14:09 | 47.41768 | 11.29893 | 7554 ft | 277 kts | 256° |
| 2026-05-07 14:10 | 47.41496 | 11.27338 | 7352 ft | 232 kts | 265° |
| 2026-05-07 14:10 | 47.41349 | 11.24771 | 7017 ft | 256 kts | 267° |
| 2026-05-07 14:10 | 47.41283 | 11.22174 | 7422 ft | 241 kts | 270° |
| 2026-05-07 14:10 | 47.41205 | 11.19671 | 7627 ft | 252 kts | 261° |
| 2026-05-07 14:11 | 47.40555 | 11.17295 | 7775 ft | 255 kts | 232° |
| 2026-05-07 14:11 | 47.39134 | 11.15703 | 7487 ft | 258 kts | 213° |
| 2026-05-07 14:11 | 47.37660 | 11.14550 | 6859 ft | 223 kts | 204° |
| 2026-05-07 14:11 | 47.36090 | 11.13865 | 6589 ft | 259 kts | 195° |
| 2026-05-07 14:12 | 47.34259 | 11.13187 | 6029 ft | 262 kts | 208° |
| 2026-05-07 14:12 | 47.32496 | 11.12618 | 4817 ft | 256 kts | 190° |
| 2026-05-07 14:12 | 47.30891 | 11.13068 | 4001 ft | 223 kts | 147° |
| 2026-05-07 14:12 | 47.29681 | 11.14472 | 3691 ft | 243 kts | 138° |